createdAt,value
2019-03-16T17:05:01.467Z,9.25
2019-03-16T17:10:01.890Z,8.92
2019-03-16T17:15:01.059Z,8.71
2019-03-16T17:20:01.699Z,8.53
2019-03-16T17:25:01.048Z,8.22
2019-03-16T17:30:01.505Z,7.85
2019-03-16T17:35:01.064Z,7.59
2019-03-16T17:40:01.513Z,7.39
2019-03-16T17:45:01.508Z,7.36
2019-03-16T17:50:01.682Z,7.26
2019-03-16T17:55:01.483Z,6.92
2019-03-16T18:00:01.696Z,6.84
2019-03-16T18:05:01.047Z,6.70
2019-03-16T18:10:01.525Z,6.45
2019-03-16T18:15:01.060Z,6.38
2019-03-16T18:20:01.524Z,6.09
2019-03-16T18:25:01.053Z,6.00
2019-03-16T18:30:01.696Z,6.15
2019-03-16T18:35:01.030Z,6.07
2019-03-16T18:40:01.731Z,5.83
2019-03-16T18:45:01.029Z,5.67
2019-03-16T18:50:01.538Z,5.49
2019-03-16T18:55:01.037Z,5.34
2019-03-16T19:00:01.721Z,5.14
2019-03-16T19:05:01.189Z,4.98
2019-03-16T19:10:02.336Z,5.02
2019-03-16T19:15:01.198Z,4.96
2019-03-16T19:20:01.594Z,4.86
2019-03-16T19:25:01.075Z,4.80
2019-03-16T19:30:01.599Z,4.91
2019-03-16T19:35:01.055Z,4.71
2019-03-16T19:40:01.593Z,4.43
2019-03-16T19:45:01.453Z,4.28
2019-03-16T19:50:01.621Z,4.07
2019-03-16T19:55:01.116Z,4.10
2019-03-16T20:00:01.719Z,4.06
2019-03-16T20:05:01.757Z,4.11
2019-03-16T20:10:01.648Z,4.01
2019-03-16T20:15:01.084Z,4.01
2019-03-16T20:20:01.656Z,4.11
2019-03-16T20:25:01.081Z,4.12
2019-03-16T20:30:01.593Z,3.88
2019-03-16T20:35:01.119Z,3.91
2019-03-16T20:40:01.711Z,3.85
2019-03-16T20:45:01.168Z,3.82
2019-03-16T20:50:01.737Z,3.79
2019-03-16T20:55:01.086Z,3.69
2019-03-16T21:00:01.635Z,3.78
2019-03-16T21:05:01.150Z,3.71
2019-03-16T21:10:01.658Z,3.59
2019-03-16T21:15:01.812Z,3.50
2019-03-16T21:20:01.749Z,3.48
2019-03-16T21:25:01.106Z,3.38
2019-03-16T21:30:01.758Z,3.26
2019-03-16T21:35:01.100Z,3.11
2019-03-16T21:40:01.637Z,3.07
2019-03-16T21:45:01.124Z,2.95
2019-03-16T21:50:01.722Z,3.01
2019-03-16T21:55:01.189Z,2.97
2019-03-16T22:00:01.798Z,2.97
2019-03-16T22:05:01.102Z,2.93
2019-03-16T22:10:01.727Z,3.01
2019-03-16T22:15:01.061Z,3.06
2019-03-16T22:20:01.721Z,2.98
2019-03-16T22:25:01.087Z,2.96
2019-03-16T22:30:01.777Z,2.86
2019-03-16T22:35:01.068Z,2.72
2019-03-16T22:40:01.741Z,2.64
2019-03-16T22:45:01.540Z,2.45
2019-03-16T22:50:01.656Z,2.37
2019-03-16T22:55:01.394Z,2.31
2019-03-16T23:00:01.685Z,2.20
2019-03-16T23:05:01.057Z,2.20
2019-03-16T23:10:01.841Z,2.11
2019-03-16T23:15:01.115Z,2.15
2019-03-16T23:20:01.667Z,1.98
2019-03-16T23:25:01.100Z,1.86
2019-03-16T23:30:01.691Z,1.88
2019-03-16T23:35:01.101Z,1.67
2019-03-16T23:40:01.732Z,1.77
2019-03-16T23:45:01.502Z,1.67
2019-03-16T23:50:01.722Z,1.55
2019-03-16T23:55:01.103Z,1.37
